Terminal Aerodrome Forecast
Issued by NWS North Platte, NE

Home | Current Version | Previous Version | Graphics & Text | Print | Product List | Glossary On
Versions: 1 2 3 4 5 6 7 8 9 10 11 12
217
FTUS43 KLBF 180521
TAFVTN
TAF
KVTN 180521Z 1806/1906 23005KT P6SM FEW200
     FM181700 16008KT P6SM BKN150
     FM181900 18014G20KT P6SM BKN150
     FM190000 16010KT P6SM BKN150=

USA.gov is the U.S. government's official web portal to all federal, state and local government web resources and services.